sensor_id;sensor_type;location;lat;lon;timestamp;P1;durP1;ratioP1;P2;durP2;ratioP2
53287;SDS011;39172;45.550;12.072;2023-11-19T00:01:37;18.70;;;15.60;;
53287;SDS011;39172;45.550;12.072;2023-11-19T00:07:37;16.55;;;13.68;;
53287;SDS011;39172;45.550;12.072;2023-11-19T00:13:45;14.35;;;12.63;;
53287;SDS011;39172;45.550;12.072;2023-11-19T00:19:48;15.25;;;11.88;;
53287;SDS011;39172;45.550;12.072;2023-11-19T00:25:51;15.77;;;13.30;;
53287;SDS011;39172;45.550;12.072;2023-11-19T00:31:52;21.17;;;17.13;;
53287;SDS011;39172;45.550;12.072;2023-11-19T00:37:53;20.60;;;17.58;;
53287;SDS011;39172;45.550;12.072;2023-11-19T00:43:55;19.88;;;16.30;;
53287;SDS011;39172;45.550;12.072;2023-11-19T00:49:56;25.95;;;19.85;;
53287;SDS011;39172;45.550;12.072;2023-11-19T00:55:57;22.58;;;18.13;;
53287;SDS011;39172;45.550;12.072;2023-11-19T01:01:59;23.20;;;19.65;;
53287;SDS011;39172;45.550;12.072;2023-11-19T01:08:04;17.45;;;14.32;;
53287;SDS011;39172;45.550;12.072;2023-11-19T01:14:06;15.93;;;12.98;;
53287;SDS011;39172;45.550;12.072;2023-11-19T01:20:07;13.10;;;11.13;;
53287;SDS011;39172;45.550;12.072;2023-11-19T01:26:08;12.43;;;10.52;;
53287;SDS011;39172;45.550;12.072;2023-11-19T01:32:11;10.23;;;8.55;;
53287;SDS011;39172;45.550;12.072;2023-11-19T01:38:13;10.93;;;9.02;;
53287;SDS011;39172;45.550;12.072;2023-11-19T01:44:15;10.30;;;8.25;;
53287;SDS011;39172;45.550;12.072;2023-11-19T01:50:16;10.45;;;9.07;;
53287;SDS011;39172;45.550;12.072;2023-11-19T01:56:17;10.93;;;9.68;;
53287;SDS011;39172;45.550;12.072;2023-11-19T02:02:18;10.27;;;8.20;;
53287;SDS011;39172;45.550;12.072;2023-11-19T02:08:24;9.40;;;7.53;;
53287;SDS011;39172;45.550;12.072;2023-11-19T02:14:25;9.00;;;6.80;;
53287;SDS011;39172;45.550;12.072;2023-11-19T02:20:27;8.45;;;6.63;;
53287;SDS011;39172;45.550;12.072;2023-11-19T02:26:29;9.70;;;7.75;;
53287;SDS011;39172;45.550;12.072;2023-11-19T02:32:36;11.25;;;8.32;;
53287;SDS011;39172;45.550;12.072;2023-11-19T02:38:42;11.60;;;8.48;;
53287;SDS011;39172;45.550;12.072;2023-11-19T02:44:46;15.30;;;9.77;;
53287;SDS011;39172;45.550;12.072;2023-11-19T02:50:49;9.15;;;6.95;;
53287;SDS011;39172;45.550;12.072;2023-11-19T02:56:50;11.07;;;7.18;;
53287;SDS011;39172;45.550;12.072;2023-11-19T03:02:57;11.52;;;7.93;;
53287;SDS011;39172;45.550;12.072;2023-11-19T03:09:06;12.70;;;8.43;;
53287;SDS011;39172;45.550;12.072;2023-11-19T03:15:11;12.32;;;8.55;;
53287;SDS011;39172;45.550;12.072;2023-11-19T03:21:12;12.85;;;8.23;;
53287;SDS011;39172;45.550;12.072;2023-11-19T03:27:13;12.77;;;8.63;;
53287;SDS011;39172;45.550;12.072;2023-11-19T03:33:14;13.57;;;9.50;;
53287;SDS011;39172;45.550;12.072;2023-11-19T03:39:15;13.20;;;9.52;;
53287;SDS011;39172;45.550;12.072;2023-11-19T03:45:16;17.33;;;10.65;;
53287;SDS011;39172;45.550;12.072;2023-11-19T03:51:17;19.88;;;12.38;;
53287;SDS011;39172;45.550;12.072;2023-11-19T03:57:18;19.88;;;12.27;;
53287;SDS011;39172;45.550;12.072;2023-11-19T04:03:19;23.83;;;14.05;;
53287;SDS011;39172;45.550;12.072;2023-11-19T04:09:20;19.95;;;12.55;;
53287;SDS011;39172;45.550;12.072;2023-11-19T04:15:21;20.55;;;12.15;;
53287;SDS011;39172;45.550;12.072;2023-11-19T04:21:22;23.52;;;14.18;;
53287;SDS011;39172;45.550;12.072;2023-11-19T04:27:24;27.17;;;14.77;;
53287;SDS011;39172;45.550;12.072;2023-11-19T04:33:24;29.05;;;16.23;;
53287;SDS011;39172;45.550;12.072;2023-11-19T04:39:26;29.17;;;15.98;;
53287;SDS011;39172;45.550;12.072;2023-11-19T04:45:27;26.38;;;15.38;;
53287;SDS011;39172;45.550;12.072;2023-11-19T04:51:28;27.15;;;15.95;;
53287;SDS011;39172;45.550;12.072;2023-11-19T04:57:29;25.08;;;15.77;;
53287;SDS011;39172;45.550;12.072;2023-11-19T05:03:31;25.90;;;16.00;;
53287;SDS011;39172;45.550;12.072;2023-11-19T05:09:32;23.52;;;14.27;;
53287;SDS011;39172;45.550;12.072;2023-11-19T05:15:33;20.95;;;12.27;;
53287;SDS011;39172;45.550;12.072;2023-11-19T05:21:36;19.98;;;11.80;;
53287;SDS011;39172;45.550;12.072;2023-11-19T05:27:37;16.50;;;10.73;;
53287;SDS011;39172;45.550;12.072;2023-11-19T05:33:40;17.48;;;10.68;;
53287;SDS011;39172;45.550;12.072;2023-11-19T05:39:42;14.63;;;9.32;;
53287;SDS011;39172;45.550;12.072;2023-11-19T05:45:44;14.48;;;9.48;;
53287;SDS011;39172;45.550;12.072;2023-11-19T05:51:46;14.50;;;9.13;;
53287;SDS011;39172;45.550;12.072;2023-11-19T05:57:48;12.10;;;7.80;;
53287;SDS011;39172;45.550;12.072;2023-11-19T06:03:49;12.77;;;8.15;;
53287;SDS011;39172;45.550;12.072;2023-11-19T06:09:51;14.77;;;8.68;;
53287;SDS011;39172;45.550;12.072;2023-11-19T06:15:52;13.95;;;10.18;;
53287;SDS011;39172;45.550;12.072;2023-11-19T06:21:53;15.65;;;11.13;;
53287;SDS011;39172;45.550;12.072;2023-11-19T06:27:54;18.00;;;11.93;;
53287;SDS011;39172;45.550;12.072;2023-11-19T06:33:55;16.42;;;11.25;;
53287;SDS011;39172;45.550;12.072;2023-11-19T06:39:56;14.80;;;10.63;;
53287;SDS011;39172;45.550;12.072;2023-11-19T06:45:57;16.90;;;10.93;;
53287;SDS011;39172;45.550;12.072;2023-11-19T06:51:58;13.20;;;8.95;;
53287;SDS011;39172;45.550;12.072;2023-11-19T06:58:01;10.82;;;8.25;;
53287;SDS011;39172;45.550;12.072;2023-11-19T07:04:04;11.25;;;7.93;;
53287;SDS011;39172;45.550;12.072;2023-11-19T07:10:09;10.10;;;7.25;;
53287;SDS011;39172;45.550;12.072;2023-11-19T07:16:10;8.32;;;6.75;;
53287;SDS011;39172;45.550;12.072;2023-11-19T07:22:11;10.90;;;8.23;;
53287;SDS011;39172;45.550;12.072;2023-11-19T07:28:15;9.98;;;8.10;;
53287;SDS011;39172;45.550;12.072;2023-11-19T07:34:17;9.23;;;7.40;;
53287;SDS011;39172;45.550;12.072;2023-11-19T07:40:18;7.75;;;6.15;;
53287;SDS011;39172;45.550;12.072;2023-11-19T07:46:20;6.15;;;5.15;;
53287;SDS011;39172;45.550;12.072;2023-11-19T07:52:21;6.00;;;4.82;;
53287;SDS011;39172;45.550;12.072;2023-11-19T07:58:22;5.50;;;4.45;;
53287;SDS011;39172;45.550;12.072;2023-11-19T08:04:23;5.78;;;4.60;;
53287;SDS011;39172;45.550;12.072;2023-11-19T08:10:24;6.93;;;5.57;;
53287;SDS011;39172;45.550;12.072;2023-11-19T08:16:25;5.50;;;4.32;;
53287;SDS011;39172;45.550;12.072;2023-11-19T08:22:26;5.47;;;4.43;;
53287;SDS011;39172;45.550;12.072;2023-11-19T08:28:27;7.35;;;6.20;;
53287;SDS011;39172;45.550;12.072;2023-11-19T08:34:29;9.80;;;7.55;;
53287;SDS011;39172;45.550;12.072;2023-11-19T08:40:30;8.43;;;6.80;;
53287;SDS011;39172;45.550;12.072;2023-11-19T08:46:32;8.77;;;7.75;;
53287;SDS011;39172;45.550;12.072;2023-11-19T08:52:33;20.13;;;16.70;;
53287;SDS011;39172;45.550;12.072;2023-11-19T08:58:35;22.50;;;17.75;;
53287;SDS011;39172;45.550;12.072;2023-11-19T09:04:36;22.08;;;11.93;;
53287;SDS011;39172;45.550;12.072;2023-11-19T09:10:37;20.40;;;11.45;;
53287;SDS011;39172;45.550;12.072;2023-11-19T09:16:39;23.23;;;11.77;;
53287;SDS011;39172;45.550;12.072;2023-11-19T09:22:40;22.45;;;11.60;;
53287;SDS011;39172;45.550;12.072;2023-11-19T09:28:41;19.55;;;9.85;;
53287;SDS011;39172;45.550;12.072;2023-11-19T09:34:42;21.05;;;9.90;;
53287;SDS011;39172;45.550;12.072;2023-11-19T09:40:44;17.20;;;8.43;;
53287;SDS011;39172;45.550;12.072;2023-11-19T09:46:45;14.68;;;7.57;;
53287;SDS011;39172;45.550;12.072;2023-11-19T09:52:48;12.55;;;6.68;;
53287;SDS011;39172;45.550;12.072;2023-11-19T09:58:50;14.30;;;7.47;;
53287;SDS011;39172;45.550;12.072;2023-11-19T10:04:52;16.80;;;7.63;;
53287;SDS011;39172;45.550;12.072;2023-11-19T10:10:53;11.85;;;7.20;;
53287;SDS011;39172;45.550;12.072;2023-11-19T10:16:56;16.63;;;9.30;;
53287;SDS011;39172;45.550;12.072;2023-11-19T10:22:57;16.13;;;6.95;;
53287;SDS011;39172;45.550;12.072;2023-11-19T10:28:58;12.40;;;6.40;;
53287;SDS011;39172;45.550;12.072;2023-11-19T10:35:06;14.15;;;7.03;;
53287;SDS011;39172;45.550;12.072;2023-11-19T10:41:07;12.85;;;6.47;;
53287;SDS011;39172;45.550;12.072;2023-11-19T10:47:08;16.98;;;9.20;;
53287;SDS011;39172;45.550;12.072;2023-11-19T10:53:12;14.43;;;6.90;;
53287;SDS011;39172;45.550;12.072;2023-11-19T10:59:40;12.25;;;6.10;;
53287;SDS011;39172;45.550;12.072;2023-11-19T11:05:42;12.98;;;6.65;;
53287;SDS011;39172;45.550;12.072;2023-11-19T11:11:46;12.82;;;6.88;;
53287;SDS011;39172;45.550;12.072;2023-11-19T11:17:47;12.90;;;6.38;;
53287;SDS011;39172;45.550;12.072;2023-11-19T11:30:06;13.15;;;6.35;;
53287;SDS011;39172;45.550;12.072;2023-11-19T11:36:13;8.35;;;4.60;;
53287;SDS011;39172;45.550;12.072;2023-11-19T11:48:23;7.85;;;4.50;;
53287;SDS011;39172;45.550;12.072;2023-11-19T11:54:27;7.95;;;4.78;;
53287;SDS011;39172;45.550;12.072;2023-11-19T12:00:30;6.50;;;5.10;;
53287;SDS011;39172;45.550;12.072;2023-11-19T12:06:34;7.13;;;5.65;;
53287;SDS011;39172;45.550;12.072;2023-11-19T12:12:36;7.88;;;5.68;;
53287;SDS011;39172;45.550;12.072;2023-11-19T12:18:39;6.70;;;4.00;;
53287;SDS011;39172;45.550;12.072;2023-11-19T12:24:40;7.22;;;5.32;;
53287;SDS011;39172;45.550;12.072;2023-11-19T12:30:41;6.70;;;5.35;;
53287;SDS011;39172;45.550;12.072;2023-11-19T12:36:43;8.95;;;6.93;;
53287;SDS011;39172;45.550;12.072;2023-11-19T12:42:44;7.80;;;6.05;;
53287;SDS011;39172;45.550;12.072;2023-11-19T12:48:46;9.43;;;5.63;;
53287;SDS011;39172;45.550;12.072;2023-11-19T12:54:47;7.47;;;5.80;;
53287;SDS011;39172;45.550;12.072;2023-11-19T13:00:48;9.40;;;7.53;;
53287;SDS011;39172;45.550;12.072;2023-11-19T13:06:59;10.13;;;8.57;;
53287;SDS011;39172;45.550;12.072;2023-11-19T13:13:01;7.90;;;6.95;;
53287;SDS011;39172;45.550;12.072;2023-11-19T13:19:03;9.25;;;7.75;;
53287;SDS011;39172;45.550;12.072;2023-11-19T13:25:05;12.60;;;10.73;;
53287;SDS011;39172;45.550;12.072;2023-11-19T13:31:11;17.80;;;14.27;;
53287;SDS011;39172;45.550;12.072;2023-11-19T13:37:12;19.90;;;14.52;;
53287;SDS011;39172;45.550;12.072;2023-11-19T13:43:14;23.10;;;10.95;;
53287;SDS011;39172;45.550;12.072;2023-11-19T13:49:15;32.15;;;14.50;;
53287;SDS011;39172;45.550;12.072;2023-11-19T13:55:16;20.25;;;10.57;;
53287;SDS011;39172;45.550;12.072;2023-11-19T14:01:17;24.55;;;12.23;;
53287;SDS011;39172;45.550;12.072;2023-11-19T14:07:19;26.98;;;12.65;;
53287;SDS011;39172;45.550;12.072;2023-11-19T14:13:20;27.95;;;12.05;;
53287;SDS011;39172;45.550;12.072;2023-11-19T14:19:21;31.33;;;13.77;;
53287;SDS011;39172;45.550;12.072;2023-11-19T14:25:22;28.15;;;11.63;;
53287;SDS011;39172;45.550;12.072;2023-11-19T14:31:27;27.35;;;13.38;;
53287;SDS011;39172;45.550;12.072;2023-11-19T14:37:29;22.63;;;10.82;;
53287;SDS011;39172;45.550;12.072;2023-11-19T14:43:31;24.05;;;11.88;;
53287;SDS011;39172;45.550;12.072;2023-11-19T14:49:34;27.55;;;13.27;;
53287;SDS011;39172;45.550;12.072;2023-11-19T14:55:35;26.85;;;13.35;;
53287;SDS011;39172;45.550;12.072;2023-11-19T15:01:44;28.35;;;14.32;;
53287;SDS011;39172;45.550;12.072;2023-11-19T15:07:46;27.80;;;12.18;;
53287;SDS011;39172;45.550;12.072;2023-11-19T15:13:48;29.52;;;14.02;;
53287;SDS011;39172;45.550;12.072;2023-11-19T15:19:50;25.52;;;12.65;;
53287;SDS011;39172;45.550;12.072;2023-11-19T15:25:51;21.80;;;11.07;;
53287;SDS011;39172;45.550;12.072;2023-11-19T15:31:53;23.85;;;13.13;;
53287;SDS011;39172;45.550;12.072;2023-11-19T15:37:53;28.52;;;13.10;;
53287;SDS011;39172;45.550;12.072;2023-11-19T15:43:56;25.98;;;12.88;;
53287;SDS011;39172;45.550;12.072;2023-11-19T15:49:57;25.35;;;12.85;;
53287;SDS011;39172;45.550;12.072;2023-11-19T15:55:58;24.10;;;11.88;;
53287;SDS011;39172;45.550;12.072;2023-11-19T16:02:00;35.42;;;18.48;;
53287;SDS011;39172;45.550;12.072;2023-11-19T16:08:02;27.40;;;13.00;;
53287;SDS011;39172;45.550;12.072;2023-11-19T16:14:03;32.63;;;16.30;;
53287;SDS011;39172;45.550;12.072;2023-11-19T16:20:04;33.70;;;16.33;;
53287;SDS011;39172;45.550;12.072;2023-11-19T16:26:10;36.17;;;18.38;;
53287;SDS011;39172;45.550;12.072;2023-11-19T16:32:13;52.92;;;23.27;;
53287;SDS011;39172;45.550;12.072;2023-11-19T16:38:17;50.70;;;22.42;;
53287;SDS011;39172;45.550;12.072;2023-11-19T16:44:18;47.60;;;23.92;;
53287;SDS011;39172;45.550;12.072;2023-11-19T16:50:19;42.58;;;21.15;;
53287;SDS011;39172;45.550;12.072;2023-11-19T16:56:23;39.45;;;19.88;;
53287;SDS011;39172;45.550;12.072;2023-11-19T17:02:24;38.92;;;19.73;;
53287;SDS011;39172;45.550;12.072;2023-11-19T17:08:29;47.95;;;21.15;;
53287;SDS011;39172;45.550;12.072;2023-11-19T17:14:33;66.43;;;29.00;;
53287;SDS011;39172;45.550;12.072;2023-11-19T17:20:35;59.17;;;27.48;;
53287;SDS011;39172;45.550;12.072;2023-11-19T17:26:37;58.88;;;26.98;;
53287;SDS011;39172;45.550;12.072;2023-11-19T17:32:39;48.58;;;25.42;;
53287;SDS011;39172;45.550;12.072;2023-11-19T17:38:40;50.78;;;28.13;;
53287;SDS011;39172;45.550;12.072;2023-11-19T17:44:41;73.18;;;34.58;;
53287;SDS011;39172;45.550;12.072;2023-11-19T17:50:42;99.05;;;46.33;;
53287;SDS011;39172;45.550;12.072;2023-11-19T17:56:44;80.57;;;37.97;;
53287;SDS011;39172;45.550;12.072;2023-11-19T18:02:45;66.80;;;31.10;;
53287;SDS011;39172;45.550;12.072;2023-11-19T18:08:46;55.45;;;29.00;;
53287;SDS011;39172;45.550;12.072;2023-11-19T18:14:47;52.30;;;25.83;;
53287;SDS011;39172;45.550;12.072;2023-11-19T18:20:48;62.25;;;30.00;;
53287;SDS011;39172;45.550;12.072;2023-11-19T18:26:49;57.53;;;28.20;;
53287;SDS011;39172;45.550;12.072;2023-11-19T18:32:50;46.78;;;23.40;;
53287;SDS011;39172;45.550;12.072;2023-11-19T18:38:51;111.03;;;50.78;;
53287;SDS011;39172;45.550;12.072;2023-11-19T18:44:53;84.32;;;42.13;;
53287;SDS011;39172;45.550;12.072;2023-11-19T18:50:54;69.65;;;33.30;;
53287;SDS011;39172;45.550;12.072;2023-11-19T18:56:56;54.40;;;26.10;;
53287;SDS011;39172;45.550;12.072;2023-11-19T19:02:57;40.70;;;20.73;;
53287;SDS011;39172;45.550;12.072;2023-11-19T19:08:58;35.33;;;18.10;;
53287;SDS011;39172;45.550;12.072;2023-11-19T19:14:59;27.98;;;15.25;;
53287;SDS011;39172;45.550;12.072;2023-11-19T19:21:01;25.77;;;13.70;;
53287;SDS011;39172;45.550;12.072;2023-11-19T19:27:02;20.50;;;10.98;;
53287;SDS011;39172;45.550;12.072;2023-11-19T19:33:04;22.45;;;12.70;;
53287;SDS011;39172;45.550;12.072;2023-11-19T19:39:05;16.58;;;9.82;;
53287;SDS011;39172;45.550;12.072;2023-11-19T19:45:14;15.32;;;8.00;;
53287;SDS011;39172;45.550;12.072;2023-11-19T19:51:16;15.65;;;8.88;;
53287;SDS011;39172;45.550;12.072;2023-11-19T19:57:17;15.75;;;12.45;;
53287;SDS011;39172;45.550;12.072;2023-11-19T20:03:18;17.35;;;13.93;;
53287;SDS011;39172;45.550;12.072;2023-11-19T20:09:20;22.48;;;17.80;;
53287;SDS011;39172;45.550;12.072;2023-11-19T20:15:23;25.90;;;16.15;;
53287;SDS011;39172;45.550;12.072;2023-11-19T20:21:26;24.35;;;14.63;;
53287;SDS011;39172;45.550;12.072;2023-11-19T20:27:27;22.27;;;17.80;;
53287;SDS011;39172;45.550;12.072;2023-11-19T20:33:29;23.10;;;14.38;;
53287;SDS011;39172;45.550;12.072;2023-11-19T20:39:31;25.00;;;14.98;;
53287;SDS011;39172;45.550;12.072;2023-11-19T20:45:34;25.90;;;20.52;;
53287;SDS011;39172;45.550;12.072;2023-11-19T20:51:35;28.98;;;23.08;;
53287;SDS011;39172;45.550;12.072;2023-11-19T20:57:37;31.67;;;24.40;;
53287;SDS011;39172;45.550;12.072;2023-11-19T21:03:38;28.88;;;23.33;;
53287;SDS011;39172;45.550;12.072;2023-11-19T21:09:39;28.55;;;23.13;;
53287;SDS011;39172;45.550;12.072;2023-11-19T21:15:40;29.92;;;24.10;;
53287;SDS011;39172;45.550;12.072;2023-11-19T21:21:41;28.08;;;21.88;;
53287;SDS011;39172;45.550;12.072;2023-11-19T21:27:43;33.60;;;21.13;;
53287;SDS011;39172;45.550;12.072;2023-11-19T21:33:46;30.85;;;19.13;;
53287;SDS011;39172;45.550;12.072;2023-11-19T21:39:47;29.08;;;23.88;;
53287;SDS011;39172;45.550;12.072;2023-11-19T21:45:48;30.13;;;22.73;;
53287;SDS011;39172;45.550;12.072;2023-11-19T21:51:49;27.60;;;21.27;;
53287;SDS011;39172;45.550;12.072;2023-11-19T21:57:50;25.38;;;19.70;;
53287;SDS011;39172;45.550;12.072;2023-11-19T22:03:52;25.70;;;15.73;;
53287;SDS011;39172;45.550;12.072;2023-11-19T22:09:53;23.17;;;19.25;;
53287;SDS011;39172;45.550;12.072;2023-11-19T22:15:55;24.23;;;20.17;;
53287;SDS011;39172;45.550;12.072;2023-11-19T22:21:57;27.60;;;20.65;;
53287;SDS011;39172;45.550;12.072;2023-11-19T22:27:58;32.22;;;20.05;;
53287;SDS011;39172;45.550;12.072;2023-11-19T22:33:59;27.08;;;22.67;;
53287;SDS011;39172;45.550;12.072;2023-11-19T22:40:02;28.05;;;22.88;;
53287;SDS011;39172;45.550;12.072;2023-11-19T22:46:03;30.75;;;24.08;;
53287;SDS011;39172;45.550;12.072;2023-11-19T22:52:04;28.25;;;23.23;;
53287;SDS011;39172;45.550;12.072;2023-11-19T22:58:07;29.95;;;24.13;;
53287;SDS011;39172;45.550;12.072;2023-11-19T23:04:08;27.58;;;22.42;;
53287;SDS011;39172;45.550;12.072;2023-11-19T23:10:09;27.98;;;22.85;;
53287;SDS011;39172;45.550;12.072;2023-11-19T23:16:10;32.08;;;25.90;;
53287;SDS011;39172;45.550;12.072;2023-11-19T23:22:13;28.58;;;24.73;;
53287;SDS011;39172;45.550;12.072;2023-11-19T23:28:15;26.67;;;22.27;;
53287;SDS011;39172;45.550;12.072;2023-11-19T23:34:17;25.08;;;19.88;;
53287;SDS011;39172;45.550;12.072;2023-11-19T23:40:18;27.60;;;21.33;;
53287;SDS011;39172;45.550;12.072;2023-11-19T23:46:19;19.25;;;15.25;;
53287;SDS011;39172;45.550;12.072;2023-11-19T23:52:21;17.52;;;13.82;;
53287;SDS011;39172;45.550;12.072;2023-11-19T23:58:22;19.35;;;14.50;;
